Terminal Aerodrome Forecast
Issued by NWS Birmingham, AL

Home | Current Version | Previous Version | Text Only | Print | Product List | Glossary On
Versions: 1 2 3 4 5 6 7 8 9 10 11 12 13 14 15 16 17 18 19 20
000
FTUS44 KBMX 210528
TAFBHM
TAF
KBHM 210528Z 2106/2206 12005KT P6SM SCT060 BKN250
     FM211200 13008KT P6SM OVC050
     FM211500 13009KT 4SM -RA OVC035
      TEMPO 2115/2118 2SM SHRA
     FM211800 15008KT 3SM -RA BR OVC015
     FM212100 14005KT P6SM VCSH OVC008=

USA.gov is the U.S. government's official web portal to all federal, state and local government web resources and services.